sensor_id;sensor_type;location;lat;lon;timestamp;P1;durP1;ratioP1;P2;durP2;ratioP2
22963;SDS011;11648;49.306;6.934;2024-03-08T00:00:11;21.53;;;12.60;;
22963;SDS011;11648;49.306;6.934;2024-03-08T00:02:41;20.00;;;12.70;;
22963;SDS011;11648;49.306;6.934;2024-03-08T00:05:09;19.67;;;12.20;;
22963;SDS011;11648;49.306;6.934;2024-03-08T00:07:36;19.83;;;12.10;;
22963;SDS011;11648;49.306;6.934;2024-03-08T00:10:04;20.70;;;12.60;;
22963;SDS011;11648;49.306;6.934;2024-03-08T00:12:31;20.70;;;12.83;;
22963;SDS011;11648;49.306;6.934;2024-03-08T00:14:58;21.43;;;13.33;;
22963;SDS011;11648;49.306;6.934;2024-03-08T00:17:26;21.30;;;12.67;;
22963;SDS011;11648;49.306;6.934;2024-03-08T00:19:54;21.67;;;12.97;;
22963;SDS011;11648;49.306;6.934;2024-03-08T00:22:20;20.43;;;12.83;;
22963;SDS011;11648;49.306;6.934;2024-03-08T00:24:48;20.80;;;12.93;;
22963;SDS011;11648;49.306;6.934;2024-03-08T00:27:18;23.43;;;12.90;;
22963;SDS011;11648;49.306;6.934;2024-03-08T00:29:47;21.63;;;12.50;;
22963;SDS011;11648;49.306;6.934;2024-03-08T00:32:14;21.63;;;13.37;;
22963;SDS011;11648;49.306;6.934;2024-03-08T00:34:41;20.80;;;13.27;;
22963;SDS011;11648;49.306;6.934;2024-03-08T00:37:09;19.97;;;12.97;;
22963;SDS011;11648;49.306;6.934;2024-03-08T00:39:36;22.13;;;13.27;;
22963;SDS011;11648;49.306;6.934;2024-03-08T00:42:03;21.47;;;13.63;;
22963;SDS011;11648;49.306;6.934;2024-03-08T00:44:30;24.07;;;13.47;;
22963;SDS011;11648;49.306;6.934;2024-03-08T00:46:58;20.53;;;12.73;;
22963;SDS011;11648;49.306;6.934;2024-03-08T00:49:25;21.30;;;13.00;;
22963;SDS011;11648;49.306;6.934;2024-03-08T00:51:52;19.83;;;13.30;;
22963;SDS011;11648;49.306;6.934;2024-03-08T00:54:19;21.33;;;13.73;;
22963;SDS011;11648;49.306;6.934;2024-03-08T00:56:46;25.37;;;14.10;;
22963;SDS011;11648;49.306;6.934;2024-03-08T00:59:13;22.93;;;13.50;;
22963;SDS011;11648;49.306;6.934;2024-03-08T01:01:41;21.00;;;13.43;;
22963;SDS011;11648;49.306;6.934;2024-03-08T01:04:08;21.30;;;13.57;;
22963;SDS011;11648;49.306;6.934;2024-03-08T01:06:35;23.03;;;14.37;;
22963;SDS011;11648;49.306;6.934;2024-03-08T01:09:01;23.70;;;13.47;;
22963;SDS011;11648;49.306;6.934;2024-03-08T01:11:28;23.93;;;14.00;;
22963;SDS011;11648;49.306;6.934;2024-03-08T01:13:55;22.33;;;13.47;;
22963;SDS011;11648;49.306;6.934;2024-03-08T01:16:22;23.83;;;14.37;;
22963;SDS011;11648;49.306;6.934;2024-03-08T01:18:49;24.60;;;14.23;;
22963;SDS011;11648;49.306;6.934;2024-03-08T01:21:17;25.57;;;14.73;;
22963;SDS011;11648;49.306;6.934;2024-03-08T01:23:44;24.37;;;14.20;;
22963;SDS011;11648;49.306;6.934;2024-03-08T01:26:10;23.43;;;13.73;;
22963;SDS011;11648;49.306;6.934;2024-03-08T01:28:38;24.67;;;15.00;;
22963;SDS011;11648;49.306;6.934;2024-03-08T01:31:04;23.83;;;13.67;;
22963;SDS011;11648;49.306;6.934;2024-03-08T01:33:32;23.73;;;14.17;;
22963;SDS011;11648;49.306;6.934;2024-03-08T01:35:59;24.27;;;14.43;;
22963;SDS011;11648;49.306;6.934;2024-03-08T01:38:26;23.77;;;14.07;;
22963;SDS011;11648;49.306;6.934;2024-03-08T01:40:53;24.67;;;13.70;;
22963;SDS011;11648;49.306;6.934;2024-03-08T01:43:21;21.77;;;14.13;;
22963;SDS011;11648;49.306;6.934;2024-03-08T01:45:49;22.40;;;13.80;;
22963;SDS011;11648;49.306;6.934;2024-03-08T01:48:16;23.67;;;14.87;;
22963;SDS011;11648;49.306;6.934;2024-03-08T01:50:45;24.90;;;15.00;;
22963;SDS011;11648;49.306;6.934;2024-03-08T01:53:12;23.37;;;13.57;;
22963;SDS011;11648;49.306;6.934;2024-03-08T01:55:41;24.73;;;15.37;;
22963;SDS011;11648;49.306;6.934;2024-03-08T01:58:09;24.97;;;15.17;;
22963;SDS011;11648;49.306;6.934;2024-03-08T02:00:37;22.90;;;14.23;;
22963;SDS011;11648;49.306;6.934;2024-03-08T02:03:07;22.77;;;14.97;;
22963;SDS011;11648;49.306;6.934;2024-03-08T02:05:34;23.90;;;14.27;;
22963;SDS011;11648;49.306;6.934;2024-03-08T02:08:02;24.53;;;14.70;;
22963;SDS011;11648;49.306;6.934;2024-03-08T02:10:29;24.60;;;14.73;;
22963;SDS011;11648;49.306;6.934;2024-03-08T02:12:56;24.90;;;14.90;;
22963;SDS011;11648;49.306;6.934;2024-03-08T02:15:22;23.60;;;15.63;;
22963;SDS011;11648;49.306;6.934;2024-03-08T02:17:49;25.33;;;15.10;;
22963;SDS011;11648;49.306;6.934;2024-03-08T02:20:16;24.57;;;14.60;;
22963;SDS011;11648;49.306;6.934;2024-03-08T02:22:46;23.63;;;14.20;;
22963;SDS011;11648;49.306;6.934;2024-03-08T02:25:12;26.33;;;15.47;;
22963;SDS011;11648;49.306;6.934;2024-03-08T02:27:39;24.87;;;15.23;;
22963;SDS011;11648;49.306;6.934;2024-03-08T02:30:06;25.37;;;14.73;;
22963;SDS011;11648;49.306;6.934;2024-03-08T02:32:34;25.80;;;14.93;;
22963;SDS011;11648;49.306;6.934;2024-03-08T02:35:01;25.20;;;15.07;;
22963;SDS011;11648;49.306;6.934;2024-03-08T02:37:27;24.47;;;15.17;;
22963;SDS011;11648;49.306;6.934;2024-03-08T02:39:55;26.60;;;15.60;;
22963;SDS011;11648;49.306;6.934;2024-03-08T02:42:22;26.77;;;15.77;;
22963;SDS011;11648;49.306;6.934;2024-03-08T02:44:49;25.73;;;15.40;;
22963;SDS011;11648;49.306;6.934;2024-03-08T02:47:16;26.27;;;15.87;;
22963;SDS011;11648;49.306;6.934;2024-03-08T02:49:43;25.77;;;15.80;;
22963;SDS011;11648;49.306;6.934;2024-03-08T02:52:10;26.00;;;15.77;;
22963;SDS011;11648;49.306;6.934;2024-03-08T02:54:37;24.63;;;15.23;;
22963;SDS011;11648;49.306;6.934;2024-03-08T02:57:04;27.70;;;15.90;;
22963;SDS011;11648;49.306;6.934;2024-03-08T02:59:34;24.33;;;14.90;;
22963;SDS011;11648;49.306;6.934;2024-03-08T03:02:01;25.43;;;15.20;;
22963;SDS011;11648;49.306;6.934;2024-03-08T03:04:28;25.23;;;15.27;;
22963;SDS011;11648;49.306;6.934;2024-03-08T03:06:54;24.03;;;14.73;;
22963;SDS011;11648;49.306;6.934;2024-03-08T03:09:21;25.33;;;15.40;;
22963;SDS011;11648;49.306;6.934;2024-03-08T03:11:51;25.97;;;15.23;;
22963;SDS011;11648;49.306;6.934;2024-03-08T03:14:18;26.00;;;15.53;;
22963;SDS011;11648;49.306;6.934;2024-03-08T03:16:45;27.30;;;16.58;;
22963;SDS011;11648;49.306;6.934;2024-03-08T03:19:12;25.37;;;15.30;;
22963;SDS011;11648;49.306;6.934;2024-03-08T03:21:39;24.30;;;15.40;;
22963;SDS011;11648;49.306;6.934;2024-03-08T03:24:05;26.53;;;15.87;;
22963;SDS011;11648;49.306;6.934;2024-03-08T03:26:37;25.23;;;15.63;;
22963;SDS011;11648;49.306;6.934;2024-03-08T03:29:05;27.13;;;14.77;;
22963;SDS011;11648;49.306;6.934;2024-03-08T03:31:32;26.30;;;15.57;;
22963;SDS011;11648;49.306;6.934;2024-03-08T03:33:59;28.60;;;15.40;;
22963;SDS011;11648;49.306;6.934;2024-03-08T03:36:30;27.53;;;15.47;;
22963;SDS011;11648;49.306;6.934;2024-03-08T03:38:57;26.67;;;15.57;;
22963;SDS011;11648;49.306;6.934;2024-03-08T03:41:32;24.77;;;14.87;;
22963;SDS011;11648;49.306;6.934;2024-03-08T03:43:59;28.00;;;16.00;;
22963;SDS011;11648;49.306;6.934;2024-03-08T03:46:26;26.90;;;16.27;;
22963;SDS011;11648;49.306;6.934;2024-03-08T03:48:54;25.27;;;15.67;;
22963;SDS011;11648;49.306;6.934;2024-03-08T03:51:22;24.77;;;15.07;;
22963;SDS011;11648;49.306;6.934;2024-03-08T03:53:49;24.40;;;14.73;;
22963;SDS011;11648;49.306;6.934;2024-03-08T03:56:15;25.20;;;15.20;;
22963;SDS011;11648;49.306;6.934;2024-03-08T03:58:42;24.83;;;15.00;;
22963;SDS011;11648;49.306;6.934;2024-03-08T04:01:09;27.83;;;15.63;;
22963;SDS011;11648;49.306;6.934;2024-03-08T04:03:36;26.60;;;15.70;;
22963;SDS011;11648;49.306;6.934;2024-03-08T04:06:06;26.90;;;15.07;;
22963;SDS011;11648;49.306;6.934;2024-03-08T04:08:33;27.10;;;15.20;;
22963;SDS011;11648;49.306;6.934;2024-03-08T04:11:01;28.13;;;14.87;;
22963;SDS011;11648;49.306;6.934;2024-03-08T04:13:28;26.40;;;14.93;;
22963;SDS011;11648;49.306;6.934;2024-03-08T04:15:54;26.07;;;15.50;;
22963;SDS011;11648;49.306;6.934;2024-03-08T04:18:21;24.97;;;14.93;;
22963;SDS011;11648;49.306;6.934;2024-03-08T04:20:48;23.00;;;14.60;;
22963;SDS011;11648;49.306;6.934;2024-03-08T04:23:15;26.30;;;14.87;;
22963;SDS011;11648;49.306;6.934;2024-03-08T04:25:44;26.50;;;15.03;;
22963;SDS011;11648;49.306;6.934;2024-03-08T04:28:11;25.90;;;15.50;;
22963;SDS011;11648;49.306;6.934;2024-03-08T04:30:40;22.33;;;13.50;;
22963;SDS011;11648;49.306;6.934;2024-03-08T04:33:07;26.63;;;15.57;;
22963;SDS011;11648;49.306;6.934;2024-03-08T04:35:35;25.80;;;14.13;;
22963;SDS011;11648;49.306;6.934;2024-03-08T04:38:02;25.20;;;14.97;;
22963;SDS011;11648;49.306;6.934;2024-03-08T04:40:31;26.33;;;15.10;;
22963;SDS011;11648;49.306;6.934;2024-03-08T04:42:58;24.27;;;14.27;;
22963;SDS011;11648;49.306;6.934;2024-03-08T04:45:25;26.60;;;15.47;;
22963;SDS011;11648;49.306;6.934;2024-03-08T04:47:52;26.83;;;14.87;;
22963;SDS011;11648;49.306;6.934;2024-03-08T04:50:19;26.73;;;15.60;;
22963;SDS011;11648;49.306;6.934;2024-03-08T04:52:46;26.90;;;15.47;;
22963;SDS011;11648;49.306;6.934;2024-03-08T04:55:14;24.67;;;14.53;;
22963;SDS011;11648;49.306;6.934;2024-03-08T04:57:41;24.87;;;15.00;;
22963;SDS011;11648;49.306;6.934;2024-03-08T05:00:12;26.17;;;14.67;;
22963;SDS011;11648;49.306;6.934;2024-03-08T05:02:41;26.47;;;14.77;;
22963;SDS011;11648;49.306;6.934;2024-03-08T05:05:08;26.73;;;15.57;;
22963;SDS011;11648;49.306;6.934;2024-03-08T05:07:39;24.70;;;15.13;;
22963;SDS011;11648;49.306;6.934;2024-03-08T05:10:06;24.23;;;14.63;;
22963;SDS011;11648;49.306;6.934;2024-03-08T05:12:33;27.83;;;15.37;;
22963;SDS011;11648;49.306;6.934;2024-03-08T05:15:00;24.93;;;15.10;;
22963;SDS011;11648;49.306;6.934;2024-03-08T05:17:27;23.33;;;14.63;;
22963;SDS011;11648;49.306;6.934;2024-03-08T05:19:54;24.17;;;14.97;;
22963;SDS011;11648;49.306;6.934;2024-03-08T05:22:21;24.90;;;14.53;;
22963;SDS011;11648;49.306;6.934;2024-03-08T05:24:48;24.53;;;14.73;;
22963;SDS011;11648;49.306;6.934;2024-03-08T05:27:15;24.43;;;14.57;;
22963;SDS011;11648;49.306;6.934;2024-03-08T05:29:42;25.83;;;14.93;;
22963;SDS011;11648;49.306;6.934;2024-03-08T05:32:09;24.63;;;14.73;;
22963;SDS011;11648;49.306;6.934;2024-03-08T05:34:36;24.57;;;14.43;;
22963;SDS011;11648;49.306;6.934;2024-03-08T05:37:04;26.47;;;15.50;;
22963;SDS011;11648;49.306;6.934;2024-03-08T05:39:31;27.57;;;15.30;;
22963;SDS011;11648;49.306;6.934;2024-03-08T05:41:57;25.67;;;15.13;;
22963;SDS011;11648;49.306;6.934;2024-03-08T05:44:24;29.07;;;15.53;;
22963;SDS011;11648;49.306;6.934;2024-03-08T05:46:51;30.50;;;15.57;;
22963;SDS011;11648;49.306;6.934;2024-03-08T05:49:18;25.27;;;15.30;;
22963;SDS011;11648;49.306;6.934;2024-03-08T05:51:45;25.47;;;14.97;;
22963;SDS011;11648;49.306;6.934;2024-03-08T05:54:14;24.33;;;14.93;;
22963;SDS011;11648;49.306;6.934;2024-03-08T05:56:44;27.70;;;15.67;;
22963;SDS011;11648;49.306;6.934;2024-03-08T05:59:12;26.67;;;15.23;;
22963;SDS011;11648;49.306;6.934;2024-03-08T06:01:39;29.80;;;15.33;;
22963;SDS011;11648;49.306;6.934;2024-03-08T06:04:09;25.47;;;14.80;;
22963;SDS011;11648;49.306;6.934;2024-03-08T06:06:37;23.37;;;15.10;;
22963;SDS011;11648;49.306;6.934;2024-03-08T06:09:04;27.13;;;15.20;;
22963;SDS011;11648;49.306;6.934;2024-03-08T06:11:44;26.23;;;15.10;;
22963;SDS011;11648;49.306;6.934;2024-03-08T06:14:11;26.43;;;15.53;;
22963;SDS011;11648;49.306;6.934;2024-03-08T06:16:37;25.60;;;14.93;;
22963;SDS011;11648;49.306;6.934;2024-03-08T06:19:05;24.57;;;13.97;;
22963;SDS011;11648;49.306;6.934;2024-03-08T06:21:32;25.47;;;14.07;;
22963;SDS011;11648;49.306;6.934;2024-03-08T06:23:59;27.93;;;14.73;;
22963;SDS011;11648;49.306;6.934;2024-03-08T06:26:26;23.23;;;14.07;;
22963;SDS011;11648;49.306;6.934;2024-03-08T06:28:57;24.60;;;13.97;;
22963;SDS011;11648;49.306;6.934;2024-03-08T06:31:24;21.87;;;14.20;;
22963;SDS011;11648;49.306;6.934;2024-03-08T06:33:51;26.00;;;14.63;;
22963;SDS011;11648;49.306;6.934;2024-03-08T06:36:21;22.80;;;13.93;;
22963;SDS011;11648;49.306;6.934;2024-03-08T06:38:48;25.00;;;13.70;;
22963;SDS011;11648;49.306;6.934;2024-03-08T06:41:16;22.60;;;13.80;;
22963;SDS011;11648;49.306;6.934;2024-03-08T06:43:43;21.37;;;13.03;;
22963;SDS011;11648;49.306;6.934;2024-03-08T06:46:11;22.73;;;13.63;;
22963;SDS011;11648;49.306;6.934;2024-03-08T06:48:39;20.07;;;12.80;;
22963;SDS011;11648;49.306;6.934;2024-03-08T06:51:07;24.30;;;13.97;;
22963;SDS011;11648;49.306;6.934;2024-03-08T06:53:34;20.83;;;12.80;;
22963;SDS011;11648;49.306;6.934;2024-03-08T06:56:01;20.23;;;12.37;;
22963;SDS011;11648;49.306;6.934;2024-03-08T06:58:28;22.07;;;12.90;;
22963;SDS011;11648;49.306;6.934;2024-03-08T07:00:55;19.07;;;12.20;;
22963;SDS011;11648;49.306;6.934;2024-03-08T07:03:27;19.77;;;11.90;;
22963;SDS011;11648;49.306;6.934;2024-03-08T07:05:56;18.73;;;11.70;;
22963;SDS011;11648;49.306;6.934;2024-03-08T07:08:25;20.03;;;12.50;;
22963;SDS011;11648;49.306;6.934;2024-03-08T07:10:54;20.40;;;12.17;;
22963;SDS011;11648;49.306;6.934;2024-03-08T07:13:21;18.07;;;12.00;;
22963;SDS011;11648;49.306;6.934;2024-03-08T07:15:48;17.90;;;11.27;;
22963;SDS011;11648;49.306;6.934;2024-03-08T07:18:15;18.03;;;11.87;;
22963;SDS011;11648;49.306;6.934;2024-03-08T07:20:42;18.17;;;11.17;;
22963;SDS011;11648;49.306;6.934;2024-03-08T07:23:10;18.67;;;11.70;;
22963;SDS011;11648;49.306;6.934;2024-03-08T07:25:37;15.47;;;11.17;;
22963;SDS011;11648;49.306;6.934;2024-03-08T07:28:06;16.07;;;11.07;;
22963;SDS011;11648;49.306;6.934;2024-03-08T07:30:38;15.53;;;11.37;;
22963;SDS011;11648;49.306;6.934;2024-03-08T07:33:11;16.60;;;11.13;;
22963;SDS011;11648;49.306;6.934;2024-03-08T07:35:39;18.27;;;11.67;;
22963;SDS011;11648;49.306;6.934;2024-03-08T07:38:07;18.40;;;12.47;;
22963;SDS011;11648;49.306;6.934;2024-03-08T07:40:36;15.90;;;11.67;;
22963;SDS011;11648;49.306;6.934;2024-03-08T07:43:13;16.07;;;11.77;;
22963;SDS011;11648;49.306;6.934;2024-03-08T07:45:40;17.37;;;11.93;;
22963;SDS011;11648;49.306;6.934;2024-03-08T07:48:07;14.93;;;11.50;;
22963;SDS011;11648;49.306;6.934;2024-03-08T07:50:37;15.80;;;12.07;;
22963;SDS011;11648;49.306;6.934;2024-03-08T07:53:09;15.43;;;11.67;;
22963;SDS011;11648;49.306;6.934;2024-03-08T07:55:36;14.93;;;11.70;;
22963;SDS011;11648;49.306;6.934;2024-03-08T07:58:04;14.30;;;11.10;;
22963;SDS011;11648;49.306;6.934;2024-03-08T08:00:31;15.30;;;11.93;;
22963;SDS011;11648;49.306;6.934;2024-03-08T08:02:58;15.33;;;11.93;;
22963;SDS011;11648;49.306;6.934;2024-03-08T08:05:25;15.13;;;11.93;;
22963;SDS011;11648;49.306;6.934;2024-03-08T08:07:53;15.17;;;11.30;;
22963;SDS011;11648;49.306;6.934;2024-03-08T08:10:20;15.60;;;11.90;;
22963;SDS011;11648;49.306;6.934;2024-03-08T08:12:52;14.73;;;11.53;;
22963;SDS011;11648;49.306;6.934;2024-03-08T08:15:19;14.67;;;12.57;;
22963;SDS011;11648;49.306;6.934;2024-03-08T08:17:47;14.47;;;11.37;;
22963;SDS011;11648;49.306;6.934;2024-03-08T08:20:14;14.90;;;12.23;;
22963;SDS011;11648;49.306;6.934;2024-03-08T08:22:42;14.13;;;11.87;;
22963;SDS011;11648;49.306;6.934;2024-03-08T08:25:12;14.20;;;11.37;;
22963;SDS011;11648;49.306;6.934;2024-03-08T08:27:40;16.17;;;11.93;;
22963;SDS011;11648;49.306;6.934;2024-03-08T08:30:07;14.10;;;11.90;;
22963;SDS011;11648;49.306;6.934;2024-03-08T08:32:38;14.90;;;12.67;;
22963;SDS011;11648;49.306;6.934;2024-03-08T08:35:11;14.15;;;11.45;;
22963;SDS011;11648;49.306;6.934;2024-03-08T08:37:39;15.70;;;11.98;;
22963;SDS011;11648;49.306;6.934;2024-03-08T08:40:07;13.50;;;11.95;;
22963;SDS011;11648;49.306;6.934;2024-03-08T08:42:41;14.95;;;11.80;;
22963;SDS011;11648;49.306;6.934;2024-03-08T08:45:09;16.63;;;12.30;;
22963;SDS011;11648;49.306;6.934;2024-03-08T08:47:46;14.23;;;11.93;;
22963;SDS011;11648;49.306;6.934;2024-03-08T08:50:13;14.90;;;12.55;;
22963;SDS011;11648;49.306;6.934;2024-03-08T08:52:40;14.98;;;12.20;;
22963;SDS011;11648;49.306;6.934;2024-03-08T08:55:10;15.43;;;12.57;;
22963;SDS011;11648;49.306;6.934;2024-03-08T08:57:41;16.08;;;12.93;;
22963;SDS011;11648;49.306;6.934;2024-03-08T09:00:09;14.63;;;12.57;;
22963;SDS011;11648;49.306;6.934;2024-03-08T09:02:42;15.05;;;12.45;;
22963;SDS011;11648;49.306;6.934;2024-03-08T09:05:09;14.13;;;12.07;;
22963;SDS011;11648;49.306;6.934;2024-03-08T09:07:36;14.40;;;12.90;;
22963;SDS011;11648;49.306;6.934;2024-03-08T09:10:04;14.75;;;12.00;;
22963;SDS011;11648;49.306;6.934;2024-03-08T09:12:34;14.65;;;13.07;;
22963;SDS011;11648;49.306;6.934;2024-03-08T09:15:01;14.25;;;12.15;;
22963;SDS011;11648;49.306;6.934;2024-03-08T09:17:28;15.50;;;12.80;;
22963;SDS011;11648;49.306;6.934;2024-03-08T09:19:55;14.88;;;11.80;;
22963;SDS011;11648;49.306;6.934;2024-03-08T09:22:24;14.95;;;13.02;;
22963;SDS011;11648;49.306;6.934;2024-03-08T09:24:51;14.48;;;12.93;;
22963;SDS011;11648;49.306;6.934;2024-03-08T09:27:18;14.77;;;12.98;;
22963;SDS011;11648;49.306;6.934;2024-03-08T09:29:46;15.23;;;12.55;;
22963;SDS011;11648;49.306;6.934;2024-03-08T09:32:13;16.08;;;12.77;;
22963;SDS011;11648;49.306;6.934;2024-03-08T09:34:39;14.13;;;12.63;;
22963;SDS011;11648;49.306;6.934;2024-03-08T09:37:07;14.20;;;11.90;;
22963;SDS011;11648;49.306;6.934;2024-03-08T09:39:35;14.40;;;12.60;;
22963;SDS011;11648;49.306;6.934;2024-03-08T09:42:02;14.98;;;12.63;;
22963;SDS011;11648;49.306;6.934;2024-03-08T09:44:30;14.43;;;12.93;;
22963;SDS011;11648;49.306;6.934;2024-03-08T09:46:57;13.77;;;12.43;;
22963;SDS011;11648;49.306;6.934;2024-03-08T09:49:26;13.77;;;12.40;;
22963;SDS011;11648;49.306;6.934;2024-03-08T09:51:55;13.68;;;12.25;;
22963;SDS011;11648;49.306;6.934;2024-03-08T09:54:23;15.15;;;13.65;;
22963;SDS011;11648;49.306;6.934;2024-03-08T09:56:53;15.68;;;14.07;;
22963;SDS011;11648;49.306;6.934;2024-03-08T09:59:20;13.85;;;11.85;;
22963;SDS011;11648;49.306;6.934;2024-03-08T10:01:49;13.90;;;12.50;;
22963;SDS011;11648;49.306;6.934;2024-03-08T10:04:18;14.20;;;12.80;;
22963;SDS011;11648;49.306;6.934;2024-03-08T10:06:45;14.05;;;12.65;;
22963;SDS011;11648;49.306;6.934;2024-03-08T10:09:14;14.07;;;12.70;;
22963;SDS011;11648;49.306;6.934;2024-03-08T10:11:42;14.57;;;13.07;;
22963;SDS011;11648;49.306;6.934;2024-03-08T10:14:09;14.15;;;12.65;;
22963;SDS011;11648;49.306;6.934;2024-03-08T10:16:40;13.38;;;11.98;;
22963;SDS011;11648;49.306;6.934;2024-03-08T10:19:07;15.25;;;13.68;;
22963;SDS011;11648;49.306;6.934;2024-03-08T10:21:34;14.27;;;12.77;;
22963;SDS011;11648;49.306;6.934;2024-03-08T10:24:04;14.00;;;12.57;;
22963;SDS011;11648;49.306;6.934;2024-03-08T10:26:31;14.35;;;12.95;;
22963;SDS011;11648;49.306;6.934;2024-03-08T10:28:58;13.43;;;12.02;;
22963;SDS011;11648;49.306;6.934;2024-03-08T10:31:25;14.15;;;11.93;;
22963;SDS011;11648;49.306;6.934;2024-03-08T10:33:52;13.80;;;12.40;;
22963;SDS011;11648;49.306;6.934;2024-03-08T10:36:19;14.32;;;12.73;;
22963;SDS011;11648;49.306;6.934;2024-03-08T10:38:46;13.50;;;12.20;;
22963;SDS011;11648;49.306;6.934;2024-03-08T10:41:14;14.00;;;12.23;;
22963;SDS011;11648;49.306;6.934;2024-03-08T10:46:29;12.50;;;11.25;;
22963;SDS011;11648;49.306;6.934;2024-03-08T10:49:03;14.75;;;13.25;;
22963;SDS011;11648;49.306;6.934;2024-03-08T10:51:33;14.23;;;12.70;;
22963;SDS011;11648;49.306;6.934;2024-03-08T10:54:00;13.23;;;12.02;;
22963;SDS011;11648;49.306;6.934;2024-03-08T10:56:29;14.27;;;12.88;;
22963;SDS011;11648;49.306;6.934;2024-03-08T10:58:56;13.40;;;12.10;;
22963;SDS011;11648;49.306;6.934;2024-03-08T11:01:23;13.32;;;12.02;;
22963;SDS011;11648;49.306;6.934;2024-03-08T11:03:52;13.90;;;12.45;;
22963;SDS011;11648;49.306;6.934;2024-03-08T11:06:22;13.48;;;12.07;;
22963;SDS011;11648;49.306;6.934;2024-03-08T11:12:18;13.18;;;11.88;;
22963;SDS011;11648;49.306;6.934;2024-03-08T11:14:59;13.95;;;11.85;;
22963;SDS011;11648;49.306;6.934;2024-03-08T11:19:55;13.13;;;11.82;;
22963;SDS011;11648;49.306;6.934;2024-03-08T11:22:23;12.55;;;11.38;;
22963;SDS011;11648;49.306;6.934;2024-03-08T11:25:04;12.73;;;11.43;;
22963;SDS011;11648;49.306;6.934;2024-03-08T11:27:37;12.85;;;11.50;;
22963;SDS011;11648;49.306;6.934;2024-03-08T11:30:07;13.30;;;12.00;;
22963;SDS011;11648;49.306;6.934;2024-03-08T11:32:44;13.50;;;11.77;;
22963;SDS011;11648;49.306;6.934;2024-03-08T11:35:19;13.48;;;12.20;;
22963;SDS011;11648;49.306;6.934;2024-03-08T11:37:47;13.45;;;12.05;;
22963;SDS011;11648;49.306;6.934;2024-03-08T11:40:15;12.85;;;11.60;;
22963;SDS011;11648;49.306;6.934;2024-03-08T11:42:47;14.13;;;12.63;;
22963;SDS011;11648;49.306;6.934;2024-03-08T11:45:15;13.45;;;12.05;;
22963;SDS011;11648;49.306;6.934;2024-03-08T11:47:45;14.57;;;13.07;;
22963;SDS011;11648;49.306;6.934;2024-03-08T11:50:17;14.77;;;13.02;;
22963;SDS011;11648;49.306;6.934;2024-03-08T11:52:47;13.40;;;12.02;;
22963;SDS011;11648;49.306;6.934;2024-03-08T11:55:16;14.63;;;13.07;;
22963;SDS011;11648;49.306;6.934;2024-03-08T11:57:47;14.02;;;12.55;;
22963;SDS011;11648;49.306;6.934;2024-03-08T12:00:15;13.23;;;11.93;;
22963;SDS011;11648;49.306;6.934;2024-03-08T12:03:01;13.90;;;12.02;;
22963;SDS011;11648;49.306;6.934;2024-03-08T12:05:29;12.95;;;11.65;;
22963;SDS011;11648;49.306;6.934;2024-03-08T12:07:58;12.55;;;11.23;;
22963;SDS011;11648;49.306;6.934;2024-03-08T12:10:28;13.25;;;11.93;;
22963;SDS011;11648;49.306;6.934;2024-03-08T12:12:57;12.90;;;11.60;;
22963;SDS011;11648;49.306;6.934;2024-03-08T12:15:26;14.55;;;13.05;;
22963;SDS011;11648;49.306;6.934;2024-03-08T12:17:55;13.57;;;12.23;;
22963;SDS011;11648;49.306;6.934;2024-03-08T12:20:26;14.43;;;12.93;;
22963;SDS011;11648;49.306;6.934;2024-03-08T12:22:58;13.52;;;12.20;;
22963;SDS011;11648;49.306;6.934;2024-03-08T12:25:32;13.50;;;12.10;;
22963;SDS011;11648;49.306;6.934;2024-03-08T12:28:10;13.88;;;12.32;;
22963;SDS011;11648;49.306;6.934;2024-03-08T12:30:46;14.60;;;13.02;;
22963;SDS011;11648;49.306;6.934;2024-03-08T12:33:14;14.80;;;13.32;;
22963;SDS011;11648;49.306;6.934;2024-03-08T12:35:49;13.68;;;12.27;;
22963;SDS011;11648;49.306;6.934;2024-03-08T12:38:21;13.30;;;11.90;;
22963;SDS011;11648;49.306;6.934;2024-03-08T12:40:57;14.02;;;12.05;;
22963;SDS011;11648;49.306;6.934;2024-03-08T12:43:25;14.40;;;12.90;;
22963;SDS011;11648;49.306;6.934;2024-03-08T12:45:52;17.00;;;13.02;;
22963;SDS011;11648;49.306;6.934;2024-03-08T12:48:21;16.23;;;12.90;;
22963;SDS011;11648;49.306;6.934;2024-03-08T12:50:48;14.37;;;12.43;;
22963;SDS011;11648;49.306;6.934;2024-03-08T12:53:17;15.53;;;12.63;;
22963;SDS011;11648;49.306;6.934;2024-03-08T12:55:44;16.13;;;12.33;;
22963;SDS011;11648;49.306;6.934;2024-03-08T12:58:11;14.97;;;11.80;;
22963;SDS011;11648;49.306;6.934;2024-03-08T13:00:38;14.63;;;12.10;;
22963;SDS011;11648;49.306;6.934;2024-03-08T13:03:09;15.50;;;11.97;;
22963;SDS011;11648;49.306;6.934;2024-03-08T13:05:38;16.53;;;11.60;;
22963;SDS011;11648;49.306;6.934;2024-03-08T13:08:08;14.47;;;11.60;;
22963;SDS011;11648;49.306;6.934;2024-03-08T13:10:39;13.97;;;11.30;;
22963;SDS011;11648;49.306;6.934;2024-03-08T13:13:10;16.87;;;12.17;;
22963;SDS011;11648;49.306;6.934;2024-03-08T13:15:40;16.87;;;11.97;;
22963;SDS011;11648;49.306;6.934;2024-03-08T13:18:07;18.37;;;12.47;;
22963;SDS011;11648;49.306;6.934;2024-03-08T13:20:35;16.80;;;13.30;;
22963;SDS011;11648;49.306;6.934;2024-03-08T13:23:13;18.17;;;12.40;;
22963;SDS011;11648;49.306;6.934;2024-03-08T13:25:40;16.37;;;11.97;;
22963;SDS011;11648;49.306;6.934;2024-03-08T13:28:08;16.03;;;11.83;;
22963;SDS011;11648;49.306;6.934;2024-03-08T13:30:35;16.43;;;11.67;;
22963;SDS011;11648;49.306;6.934;2024-03-08T13:33:02;15.23;;;12.20;;
22963;SDS011;11648;49.306;6.934;2024-03-08T13:35:34;18.57;;;12.20;;
22963;SDS011;11648;49.306;6.934;2024-03-08T13:38:01;17.53;;;12.90;;
22963;SDS011;11648;49.306;6.934;2024-03-08T13:40:31;18.00;;;12.50;;
22963;SDS011;11648;49.306;6.934;2024-03-08T13:42:58;16.17;;;11.53;;
22963;SDS011;11648;49.306;6.934;2024-03-08T13:45:27;16.90;;;12.30;;
22963;SDS011;11648;49.306;6.934;2024-03-08T13:47:54;16.73;;;12.40;;
22963;SDS011;11648;49.306;6.934;2024-03-08T13:50:22;16.13;;;11.80;;
22963;SDS011;11648;49.306;6.934;2024-03-08T13:52:49;17.60;;;12.57;;
22963;SDS011;11648;49.306;6.934;2024-03-08T13:55:22;15.60;;;11.47;;
22963;SDS011;11648;49.306;6.934;2024-03-08T13:57:52;17.60;;;12.53;;
22963;SDS011;11648;49.306;6.934;2024-03-08T14:00:19;16.17;;;12.33;;
22963;SDS011;11648;49.306;6.934;2024-03-08T14:02:51;17.37;;;12.50;;
22963;SDS011;11648;49.306;6.934;2024-03-08T14:05:18;17.37;;;11.70;;
22963;SDS011;11648;49.306;6.934;2024-03-08T14:07:46;16.30;;;11.73;;
22963;SDS011;11648;49.306;6.934;2024-03-08T14:10:16;19.97;;;12.50;;
22963;SDS011;11648;49.306;6.934;2024-03-08T14:12:47;16.90;;;11.90;;
22963;SDS011;11648;49.306;6.934;2024-03-08T14:15:17;18.07;;;12.57;;
22963;SDS011;11648;49.306;6.934;2024-03-08T14:17:44;16.77;;;12.10;;
22963;SDS011;11648;49.306;6.934;2024-03-08T14:20:12;18.10;;;11.73;;
22963;SDS011;11648;49.306;6.934;2024-03-08T14:22:39;16.20;;;11.20;;
22963;SDS011;11648;49.306;6.934;2024-03-08T14:25:06;14.33;;;10.63;;
22963;SDS011;11648;49.306;6.934;2024-03-08T14:27:44;16.43;;;11.43;;
22963;SDS011;11648;49.306;6.934;2024-03-08T14:30:12;14.30;;;10.37;;
22963;SDS011;11648;49.306;6.934;2024-03-08T14:32:40;16.77;;;11.83;;
22963;SDS011;11648;49.306;6.934;2024-03-08T14:35:08;16.30;;;11.23;;